Time;durP1;ratioP1;P1;durP2;ratioP2;P2;SDS_P1;SDS_P2;PMS_P1;PMS_P2;Temp;Humidity;BMP_temperature;BMP_pressure;BME280_temperature;BME280_humidity;BME280_pressure;Samples;Min_cycle;Max_cycle;Signal;HPM_P1;HPM_P2
2020/12/13 00:00:48;;;;;;;2.83;2.63;;;;;;;18.91;46.95;99897.03;5061982;28;20212;-58
2020/12/13 00:03:14;;;;;;;3.00;2.80;;;;;;;18.87;47.11;99903.03;5061116;28;20207;-62
2020/12/13 00:05:40;;;;;;;3.00;2.80;;;;;;;18.86;47.16;99896.78;5062983;28;20184;-59
2020/12/13 00:08:06;;;;;;;3.07;2.87;;;;;;;18.81;47.42;99892.97;5061501;28;20210;-65
2020/12/13 00:10:32;;;;;;;3.00;2.80;;;;;;;18.79;47.26;99903.16;5061240;28;20188;-65
2020/12/13 00:12:58;;;;;;;3.00;2.77;;;;;;;18.77;47.49;99908.75;5062285;28;20206;-62
2020/12/13 00:15:24;;;;;;;3.20;3.00;;;;;;;18.75;47.46;99908.13;5055075;28;20188;-62
2020/12/13 00:17:51;;;;;;;2.97;2.77;;;;;;;18.73;47.47;99912.06;5052011;28;20298;-63
2020/12/13 00:20:18;;;;;;;3.10;2.90;;;;;;;18.70;47.15;99914.09;5051948;28;20224;-63
2020/12/13 00:22:45;;;;;;;2.87;2.67;;;;;;;18.65;47.36;99916.53;5051358;28;20204;-63
2020/12/13 00:25:11;;;;;;;3.20;2.90;;;;;;;18.62;47.47;99916.91;5051089;28;20176;-63
2020/12/13 00:27:37;;;;;;;3.10;2.90;;;;;;;18.58;47.46;99920.16;5050848;28;20258;-63
2020/12/13 00:30:04;;;;;;;2.77;2.57;;;;;;;18.52;47.69;99916.31;5051148;28;20601;-63
2020/12/13 00:32:30;;;;;;;3.30;3.00;;;;;;;18.52;47.27;99918.19;5055075;28;20608;-63
2020/12/13 00:34:57;;;;;;;3.20;3.00;;;;;;;18.50;47.58;99922.97;5054958;28;20215;-64
2020/12/13 00:37:24;;;;;;;3.07;2.87;;;;;;;18.45;47.91;99928.91;5054795;28;20219;-63
2020/12/13 00:39:50;;;;;;;3.03;2.83;;;;;;;18.47;47.64;99935.03;5054882;28;20200;-63
2020/12/13 00:42:16;;;;;;;2.70;2.50;;;;;;;18.40;47.75;99937.59;5053706;28;20215;-63
2020/12/13 00:44:42;;;;;;;3.07;2.87;;;;;;;18.39;47.68;99940.50;5054820;28;20254;-62
2020/12/13 00:47:08;;;;;;;3.10;2.90;;;;;;;18.36;47.51;99949.84;5054683;28;20184;-62
2020/12/13 00:49:34;;;;;;;2.80;2.60;;;;;;;18.37;47.31;99939.84;5054513;28;20211;-63
2020/12/13 00:52:01;;;;;;;3.50;3.20;;;;;;;18.18;47.75;99929.56;5054610;28;20494;-62
2020/12/13 00:54:27;;;;;;;3.00;2.80;;;;;;;18.34;47.55;99956.50;5054601;28;20176;-63
2020/12/13 00:56:53;;;;;;;3.07;2.87;;;;;;;18.30;47.46;99960.59;5054552;28;20636;-63
2020/12/13 00:59:19;;;;;;;2.67;2.47;;;;;;;18.29;47.79;99972.47;5054496;28;20204;-63
2020/12/13 01:01:45;;;;;;;3.00;2.77;;;;;;;18.27;47.86;99958.25;5054450;28;20641;-63
2020/12/13 01:04:12;;;;;;;2.90;2.70;;;;;;;18.27;47.77;99960.97;5054348;28;20193;-57
2020/12/13 01:06:38;;;;;;;2.87;2.57;;;;;;;18.22;47.44;99960.69;5054345;28;20184;-59
2020/12/13 01:09:04;;;;;;;2.83;2.63;;;;;;;18.19;48.02;99964.56;5054146;28;20215;-63
2020/12/13 01:11:31;;;;;;;3.10;2.80;;;;;;;18.16;48.03;99958.69;5054186;28;20929;-63
2020/12/13 01:13:57;;;;;;;2.93;2.73;;;;;;;18.13;47.52;99970.75;5054222;28;20192;-62
2020/12/13 01:16:23;;;;;;;3.03;2.83;;;;;;;18.13;47.96;99968.03;5054476;28;20188;-56
2020/12/13 01:18:50;;;;;;;3.10;2.90;;;;;;;18.14;47.87;99968.88;5053230;28;20200;-57
2020/12/13 01:21:19;;;;;;;3.00;2.80;;;;;;;18.05;47.89;99974.38;5053222;28;20192;-57
2020/12/13 01:23:45;;;;;;;2.50;2.30;;;;;;;18.04;47.77;99975.41;5053897;28;20212;-65
2020/12/13 01:26:15;;;;;;;3.03;2.83;;;;;;;17.98;47.93;99969.84;5054027;28;20485;-62
2020/12/13 01:28:41;;;;;;;2.83;2.63;;;;;;;17.99;48.21;99983.22;5053906;28;20201;-58
2020/12/13 01:31:08;;;;;;;3.07;2.87;;;;;;;17.96;47.90;99983.56;5053122;28;20253;-57
2020/12/13 01:33:34;;;;;;;2.93;2.73;;;;;;;17.95;47.76;99991.88;5053913;28;20184;-65
2020/12/13 01:36:00;;;;;;;2.70;2.50;;;;;;;17.93;47.66;99997.47;5053882;28;20219;-65
2020/12/13 01:38:26;;;;;;;2.70;2.50;;;;;;;17.88;47.83;100001.75;5052729;28;20208;-63
2020/12/13 01:40:59;;;;;;;3.03;2.83;;;;;;;17.87;48.09;100008.19;5053958;28;20531;-60
2020/12/13 01:43:26;;;;;;;3.10;2.90;;;;;;;17.84;47.90;100004.00;5051850;28;20699;-57
2020/12/13 01:45:52;;;;;;;2.73;2.53;;;;;;;17.82;48.36;100013.31;5053477;28;20271;-58
2020/12/13 01:48:18;;;;;;;2.90;2.70;;;;;;;17.80;48.33;100010.78;5053331;28;20215;-57
2020/12/13 01:50:55;;;;;;;2.80;2.60;;;;;;;17.81;47.84;100008.94;5053411;28;20269;-63
2020/12/13 01:53:25;;;;;;;3.10;2.90;;;;;;;17.77;48.14;100014.69;5053551;28;20666;-62
2020/12/13 01:55:55;;;;;;;2.90;2.70;;;;;;;17.76;48.32;100009.47;5053697;28;20241;-62
2020/12/13 01:58:27;;;;;;;2.80;2.60;;;;;;;17.83;47.89;100007.72;5052487;28;20227;-62
2020/12/13 02:01:01;;;;;;;2.80;2.60;;;;;;;17.87;48.34;100019.88;5053498;28;20584;-63
2020/12/13 02:03:48;;;;;;;3.00;2.80;;;;;;;17.94;47.80;100022.69;5035612;28;20208;-58
2020/12/13 02:06:22;;;;;;;2.90;2.70;;;;;;;17.99;47.77;100029.25;5053351;28;20277;-58
2020/12/13 02:08:49;;;;;;;3.00;2.80;;;;;;;18.00;47.95;100030.94;5052293;28;20641;-62
2020/12/13 02:11:15;;;;;;;2.80;2.60;;;;;;;18.03;48.25;100029.75;5053249;28;20193;-66
2020/12/13 02:13:41;;;;;;;2.90;2.70;;;;;;;18.04;48.35;100043.09;5053160;28;20583;-56
2020/12/13 02:16:07;;;;;;;2.90;2.70;;;;;;;18.07;48.25;100042.72;5053062;28;20188;-57
2020/12/13 02:18:34;;;;;;;2.70;2.50;;;;;;;18.08;47.98;100049.81;5052912;28;20706;-62
2020/12/13 02:21:01;;;;;;;2.70;2.50;;;;;;;18.10;48.15;100057.78;5052921;28;20192;-62
2020/12/13 02:23:30;;;;;;;2.80;2.60;;;;;;;18.12;48.38;100063.00;5052873;28;20216;-59
2020/12/13 02:25:56;;;;;;;2.40;2.20;;;;;;;18.12;47.73;100063.84;5051998;28;20327;-60
2020/12/13 02:28:22;;;;;;;2.70;2.40;;;;;;;18.12;48.03;100068.41;5052587;28;20212;-57
2020/12/13 02:30:50;;;;;;;2.70;2.53;;;;;;;18.12;48.28;100073.84;5052786;28;20192;-56
2020/12/13 02:33:16;;;;;;;2.90;2.70;;;;;;;18.11;47.67;100081.13;5052729;28;20814;-63
2020/12/13 02:35:42;;;;;;;2.50;2.40;;;;;;;18.10;47.55;100072.16;5056962;28;20248;-60
2020/12/13 02:38:08;;;;;;;2.90;2.70;;;;;;;18.09;47.90;100083.16;5072428;28;20200;-66
2020/12/13 02:40:34;;;;;;;2.57;2.37;;;;;;;18.08;47.72;100085.03;5072636;28;20219;-66
2020/12/13 02:43:00;;;;;;;2.63;2.43;;;;;;;18.06;47.77;100089.78;5072388;28;20413;-66
2020/12/13 02:45:26;;;;;;;2.97;2.77;;;;;;;18.07;47.65;100094.19;5072474;28;20768;-66
2020/12/13 02:47:53;;;;;;;2.70;2.50;;;;;;;18.02;48.11;100091.19;5072572;28;20207;-57
2020/12/13 02:50:19;;;;;;;2.60;2.40;;;;;;;18.00;48.13;100095.94;5072484;28;20705;-59
2020/12/13 02:52:45;;;;;;;2.57;2.37;;;;;;;17.98;48.14;100087.16;5072393;28;20272;-62
2020/12/13 02:55:11;;;;;;;2.50;2.40;;;;;;;17.91;47.83;100097.00;5072256;28;20183;-62
2020/12/13 02:57:40;;;;;;;2.70;2.50;;;;;;;17.88;47.91;100091.94;5071091;28;20662;-63
2020/12/13 03:00:07;;;;;;;2.40;2.30;;;;;;;17.64;47.50;100059.56;5072359;28;20187;-65
2020/12/13 03:02:33;;;;;;;2.77;2.57;;;;;;;17.89;47.70;100093.63;5072151;28;20223;-65
2020/12/13 03:04:59;;;;;;;2.70;2.50;;;;;;;17.91;47.81;100090.72;5072047;28;20538;-55
2020/12/13 03:07:25;;;;;;;2.47;2.30;;;;;;;17.93;48.13;100092.25;5071106;28;20206;-62
2020/12/13 03:09:51;;;;;;;2.47;2.37;;;;;;;17.94;48.21;100096.63;5072161;28;20183;-60
2020/12/13 03:12:17;;;;;;;2.60;2.40;;;;;;;17.95;48.00;100098.31;5072068;28;20212;-59
2020/12/13 03:14:43;;;;;;;2.57;2.37;;;;;;;18.05;47.74;100109.78;5072136;28;20245;-59
2020/12/13 03:17:09;;;;;;;2.27;2.17;;;;;;;18.14;47.89;100107.00;5071839;28;20481;-59
2020/12/13 03:19:35;;;;;;;2.30;2.20;;;;;;;18.20;47.94;100106.25;5071822;28;20187;-55
2020/12/13 03:22:01;;;;;;;2.40;2.30;;;;;;;18.27;47.76;100108.09;5071836;28;20207;-58
2020/12/13 03:24:27;;;;;;;2.20;2.10;;;;;;;18.35;47.58;100109.88;5071810;28;20526;-57
2020/12/13 03:26:53;;;;;;;2.30;2.20;;;;;;;18.41;47.61;100111.88;5070918;28;20279;-58
2020/12/13 03:29:19;;;;;;;2.57;2.37;;;;;;;18.50;47.90;100108.09;5071780;28;20213;-62
2020/12/13 03:31:47;;;;;;;2.40;2.30;;;;;;;18.58;47.62;100105.28;5072615;28;20522;-62
2020/12/13 03:34:13;;;;;;;2.50;2.30;;;;;;;18.63;47.48;100113.75;5072525;28;20265;-59
2020/12/13 03:36:39;;;;;;;2.37;2.27;;;;;;;18.68;47.60;100121.31;5071565;28;20191;-59
2020/12/13 03:39:05;;;;;;;2.20;2.10;;;;;;;18.72;47.36;100116.41;5071358;28;20214;-57
2020/12/13 03:41:31;;;;;;;2.27;2.17;;;;;;;18.76;47.30;100123.13;5070386;28;20685;-57
2020/12/13 03:43:57;;;;;;;2.37;2.17;;;;;;;18.79;47.22;100117.34;5071470;28;20187;-56
2020/12/13 03:46:24;;;;;;;2.10;2.00;;;;;;;18.80;47.39;100129.88;5071501;28;20210;-59
2020/12/13 03:48:50;;;;;;;2.20;2.10;;;;;;;18.81;47.04;100128.84;5071573;28;20199;-64
2020/12/13 03:51:16;;;;;;;2.30;2.17;;;;;;;18.80;47.27;100124.44;5071707;28;20253;-66
2020/12/13 03:53:42;;;;;;;2.13;2.03;;;;;;;18.81;47.22;100120.69;5071531;28;20179;-60
2020/12/13 03:56:08;;;;;;;2.10;2.00;;;;;;;18.79;47.20;100129.03;5071440;28;20179;-60
2020/12/13 03:58:34;;;;;;;2.20;2.10;;;;;;;18.78;47.28;100130.06;5071330;28;20199;-60
2020/12/13 04:01:00;;;;;;;2.00;1.90;;;;;;;18.76;47.11;100132.09;5070429;28;20219;-67
2020/12/13 04:03:26;;;;;;;2.37;2.17;;;;;;;18.75;47.00;100135.00;5071354;28;20253;-58
2020/12/13 04:05:52;;;;;;;2.10;2.00;;;;;;;18.72;46.94;100141.63;5074705;28;20185;-59
2020/12/13 04:08:18;;;;;;;2.20;2.10;;;;;;;18.69;46.98;100150.09;5077885;28;20210;-59
2020/12/13 04:10:44;;;;;;;2.20;2.10;;;;;;;18.62;47.34;100144.59;5077024;28;20187;-58
2020/12/13 04:13:10;;;;;;;2.10;2.00;;;;;;;18.59;46.96;100155.75;5077958;28;20712;-66
2020/12/13 04:15:36;;;;;;;2.20;2.10;;;;;;;18.53;46.93;100156.50;5077857;28;20694;-64
2020/12/13 04:18:03;;;;;;;2.10;2.00;;;;;;;18.47;47.09;100159.09;5077818;28;20207;-64
2020/12/13 04:20:29;;;;;;;2.10;2.00;;;;;;;18.44;47.20;100154.84;5077830;28;20195;-66
2020/12/13 04:22:55;;;;;;;2.10;2.00;;;;;;;18.34;47.53;100156.97;5077572;28;20640;-58
2020/12/13 04:25:21;;;;;;;1.93;1.83;;;;;;;18.28;47.42;100169.38;5077851;28;20195;-64
2020/12/13 04:27:47;;;;;;;2.20;2.10;;;;;;;18.29;47.53;100167.50;5077782;28;20227;-58
2020/12/13 04:30:13;;;;;;;2.07;1.97;;;;;;;18.22;47.64;100175.53;5076983;28;20186;-60
2020/12/13 04:32:39;;;;;;;2.20;2.10;;;;;;;18.18;47.67;100167.91;5076839;28;20530;-58
2020/12/13 04:35:07;;;;;;;2.17;2.07;;;;;;;18.15;47.76;100171.81;5077741;28;20184;-64
2020/12/13 04:37:33;;;;;;;2.50;2.30;;;;;;;18.12;47.49;100176.75;5077586;28;20738;-64
2020/12/13 04:40:00;;;;;;;2.10;2.00;;;;;;;18.06;47.64;100181.88;5077756;28;20183;-58
2020/12/13 04:42:26;;;;;;;1.87;1.77;;;;;;;18.05;47.70;100176.63;5077822;28;20230;-58
2020/12/13 04:44:52;;;;;;;2.00;1.90;;;;;;;18.09;47.72;100183.38;5077739;28;20184;-67
2020/12/13 04:47:19;;;;;;;2.10;2.00;;;;;;;18.08;47.71;100187.94;5076809;28;20542;-64
2020/12/13 04:49:50;;;;;;;2.10;2.00;;;;;;;18.12;47.70;100179.47;5077555;28;20282;-58
2020/12/13 04:52:16;;;;;;;2.10;2.00;;;;;;;18.13;47.29;100190.13;5077388;28;20183;-59
2020/12/13 04:54:51;;;;;;;2.10;2.00;;;;;;;18.14;47.32;100189.09;5077467;28;20187;-57
2020/12/13 04:57:18;;;;;;;2.10;2.00;;;;;;;18.14;47.22;100194.50;5076416;28;20207;-58
2020/12/13 04:59:45;;;;;;;2.30;2.20;;;;;;;18.17;47.40;100199.56;5077435;28;20282;-60
2020/12/13 05:02:12;;;;;;;2.10;2.00;;;;;;;18.18;47.49;100203.13;5077383;28;20226;-60
2020/12/13 05:04:38;;;;;;;1.73;1.63;;;;;;;18.21;47.49;100205.47;5076602;28;20180;-60
2020/12/13 05:07:04;;;;;;;1.90;1.80;;;;;;;18.22;47.65;100212.59;5077361;28;20670;-60
2020/12/13 05:09:30;;;;;;;2.00;1.90;;;;;;;18.22;47.98;100213.44;5076534;28;20234;-60
2020/12/13 05:11:56;;;;;;;1.83;1.73;;;;;;;18.25;47.38;100215.78;5077508;28;20619;-60
2020/12/13 05:14:23;;;;;;;2.10;2.00;;;;;;;18.25;47.82;100223.09;5076551;28;20185;-64
2020/12/13 05:16:49;;;;;;;1.67;1.57;;;;;;;18.27;47.44;100223.75;5074419;28;20180;-64
2020/12/13 05:19:15;;;;;;;1.90;1.80;;;;;;;18.27;47.83;100226.44;5073916;28;20203;-60
2020/12/13 05:21:41;;;;;;;1.80;1.70;;;;;;;18.27;47.93;100223.75;5074386;28;20520;-66
2020/12/13 05:24:08;;;;;;;1.83;1.73;;;;;;;18.27;47.40;100231.88;5056814;28;20184;-67
2020/12/13 05:26:34;;;;;;;1.60;1.50;;;;;;;18.25;47.63;100234.75;5074311;28;20194;-67
2020/12/13 05:29:03;;;;;;;2.20;2.10;;;;;;;18.24;47.67;100237.66;5073904;28;20200;-59
2020/12/13 05:31:29;;;;;;;2.00;1.90;;;;;;;18.24;47.87;100233.06;5073929;28;20199;-56
2020/12/13 05:34:00;;;;;;;1.83;1.73;;;;;;;18.26;47.29;100246.44;5073723;28;20187;-58
2020/12/13 05:36:28;;;;;;;1.70;1.60;;;;;;;18.27;47.48;100250.84;5073780;28;20274;-59
2020/12/13 05:38:58;;;;;;;1.80;1.70;;;;;;;18.23;47.76;100249.50;5073863;28;20598;-58
2020/12/13 05:41:28;;;;;;;2.00;1.90;;;;;;;18.20;47.38;100252.53;5073838;28;20191;-67
2020/12/13 05:46:44;;;;;;;2.00;1.90;;;;;;;18.15;47.76;100257.66;5072954;28;20191;-60
2020/12/13 05:51:55;;;;;;;1.90;1.80;;;;;;;18.15;47.35;100263.91;5073795;28;20280;-60
2020/12/13 05:54:25;;;;;;;1.80;1.70;;;;;;;18.15;47.60;100258.50;5056151;28;20191;-58
2020/12/13 05:57:01;;;;;;;1.80;1.70;;;;;;;18.20;47.38;100247.13;5073504;28;20184;-58
2020/12/13 05:59:29;;;;;;;1.70;1.60;;;;;;;18.27;47.68;100265.22;5073441;28;20626;-60
2020/12/13 06:01:56;;;;;;;1.57;1.47;;;;;;;18.36;47.35;100266.84;5073431;28;20204;-66
2020/12/13 06:04:25;;;;;;;1.47;1.40;;;;;;;18.45;46.96;100267.63;5073521;28;20641;-60
2020/12/13 06:06:54;;;;;;;1.80;1.70;;;;;;;18.50;46.96;100276.09;5073353;28;20171;-60
2020/12/13 06:09:26;;;;;;;1.60;1.50;;;;;;;18.56;47.32;100277.25;5073050;28;20215;-60
2020/12/13 06:11:52;;;;;;;1.70;1.60;;;;;;;18.61;47.23;100283.81;5056504;28;20175;-63
2020/12/13 06:14:22;;;;;;;1.50;1.40;;;;;;;18.67;47.01;100287.69;5072105;28;20579;-63
2020/12/13 06:16:49;;;;;;;1.50;1.40;;;;;;;18.71;46.80;100289.06;5073133;28;20183;-66
2020/12/13 06:19:20;;;;;;;1.70;1.60;;;;;;;18.78;46.90;100286.47;5072972;28;20651;-60
2020/12/13 06:21:47;;;;;;;1.80;1.70;;;;;;;18.81;46.74;100288.81;5072907;28;20180;-60
2020/12/13 06:24:13;;;;;;;1.80;1.70;;;;;;;18.83;46.79;100293.03;5072162;28;20693;-60
2020/12/13 06:26:39;;;;;;;1.60;1.50;;;;;;;18.84;46.54;100293.88;5073061;28;20260;-59
2020/12/13 06:29:05;;;;;;;1.40;1.40;;;;;;;18.84;46.84;100294.72;5072741;28;20192;-60
2020/12/13 06:31:33;;;;;;;1.37;1.37;;;;;;;18.84;46.55;100300.13;5073022;28;20209;-60
2020/12/13 06:33:59;;;;;;;1.53;1.50;;;;;;;18.87;46.60;100293.50;5072922;28;20183;-60
2020/12/13 06:36:25;;;;;;;1.53;1.43;;;;;;;18.86;46.54;100292.66;5072707;28;20210;-60
2020/12/13 06:38:53;;;;;;;1.70;1.60;;;;;;;18.83;46.46;100297.59;5072685;28;20207;-60
2020/12/13 06:41:21;;;;;;;1.53;1.50;;;;;;;18.81;46.84;100302.38;5072747;28;20191;-60
2020/12/13 06:43:55;;;;;;;2.10;1.63;;;;;;;18.80;46.85;100311.53;5072732;28;20241;-60
2020/12/13 06:46:22;;;;;;;1.60;1.50;;;;;;;18.76;46.58;100313.75;5071777;28;20632;-60
2020/12/13 06:48:48;;;;;;;1.50;1.40;;;;;;;18.72;46.37;100319.72;5072450;28;20273;-60
2020/12/13 06:51:19;;;;;;;1.70;1.60;;;;;;;18.67;46.86;100318.38;5071384;28;20234;-66
2020/12/13 06:53:46;;;;;;;1.40;1.40;;;;;;;18.63;46.74;100318.91;5072328;28;20266;-67
2020/12/13 06:56:12;;;;;;;1.60;1.50;;;;;;;18.58;46.47;100316.72;5071469;28;20551;-63
2020/12/13 06:58:59;;;;;;;1.30;1.30;;;;;;;18.52;46.95;100317.41;5072292;28;20229;-64
2020/12/13 07:01:37;;;;;;;1.60;1.50;;;;;;;18.49;47.00;100322.34;5072324;28;20183;-60
2020/12/13 07:04:23;;;;;;;1.30;1.30;;;;;;;18.47;47.08;100325.25;5071709;28;20209;-60
2020/12/13 07:06:59;;;;;;;1.77;1.67;;;;;;;18.47;47.02;100321.69;5071575;28;20262;-60
2020/12/13 07:09:25;;;;;;;1.33;1.23;;;;;;;18.46;47.24;100323.56;5072317;28;20248;-57
2020/12/13 07:11:52;;;;;;;1.50;1.40;;;;;;;18.47;47.34;100330.66;5072131;28;20811;-64
2020/12/13 07:14:19;;;;;;;1.67;1.57;;;;;;;18.47;46.99;100329.81;5072341;28;20601;-64
2020/12/13 07:16:47;;;;;;;1.30;1.30;;;;;;;18.47;47.40;100322.53;5054453;28;20184;-63
2020/12/13 07:19:15;;;;;;;1.50;1.40;;;;;;;18.47;47.05;100327.13;5071961;28;20196;-58
2020/12/13 07:21:42;;;;;;;1.40;1.40;;;;;;;18.46;47.06;100328.97;5071059;28;20267;-64
2020/12/13 07:24:08;;;;;;;1.40;1.40;;;;;;;18.46;47.13;100326.28;5071889;28;20175;-60
2020/12/13 07:26:38;;;;;;;1.40;1.37;;;;;;;18.45;47.12;100327.25;5071779;28;20210;-60
2020/12/13 07:29:06;;;;;;;1.30;1.30;;;;;;;18.42;47.15;100339.31;5071696;28;20225;-60
2020/12/13 07:31:36;;;;;;;1.27;1.27;;;;;;;18.42;47.40;100335.75;5071596;28;20673;-60
2020/12/13 07:34:05;;;;;;;1.33;1.30;;;;;;;18.41;47.52;100336.78;5071771;28;20263;-59
2020/12/13 07:36:34;;;;;;;1.30;1.27;;;;;;;18.37;47.19;100343.56;5071632;28;20186;-66
2020/12/13 07:39:07;;;;;;;1.50;1.40;;;;;;;18.35;47.13;100342.91;5071559;28;20207;-63
2020/12/13 07:41:34;;;;;;;1.20;1.20;;;;;;;18.33;47.39;100350.38;5070267;28;20183;-66
2020/12/13 07:44:01;;;;;;;1.40;1.40;;;;;;;18.30;47.23;100350.72;5071902;28;20294;-67
2020/12/13 07:46:32;;;;;;;1.20;1.20;;;;;;;18.28;47.33;100352.75;5071786;28;20274;-66
2020/12/13 07:49:08;;;;;;;1.23;1.23;;;;;;;18.21;47.46;100359.88;5071760;28;20207;-66
2020/12/13 07:51:36;;;;;;;1.43;1.33;;;;;;;18.17;47.46;100361.25;5054931;28;20188;-64
2020/12/13 07:54:13;;;;;;;1.30;1.30;;;;;;;18.09;47.15;100365.69;5052432;28;20176;-63
2020/12/13 07:56:40;;;;;;;1.40;1.40;;;;;;;18.13;47.67;100362.63;5052561;28;20188;-64
2020/12/13 07:59:42;;;;;;;1.40;1.40;;;;;;;18.13;47.47;100370.75;5052829;28;20200;-60
2020/12/13 08:02:09;;;;;;;1.23;1.23;;;;;;;18.16;47.16;100368.53;5051001;28;20304;-60
2020/12/13 08:04:39;;;;;;;1.40;1.40;;;;;;;18.22;47.22;100377.84;5051375;28;20184;-60
2020/12/13 08:07:06;;;;;;;1.33;1.23;;;;;;;18.29;47.31;100382.38;5052401;28;20172;-60
2020/12/13 08:09:33;;;;;;;1.20;1.20;;;;;;;18.37;47.43;100384.22;5052181;28;20172;-64
2020/12/13 08:11:59;;;;;;;1.33;1.30;;;;;;;18.44;46.98;100387.91;5052262;28;20215;-67
2020/12/13 08:14:26;;;;;;;1.23;1.23;;;;;;;18.52;47.03;100393.31;5052284;28;20200;-66
2020/12/13 08:16:52;;;;;;;1.40;1.30;;;;;;;18.60;46.99;100389.72;5052344;28;20238;-58
2020/12/13 08:19:23;;;;;;;1.10;1.10;;;;;;;18.67;47.12;100396.13;5051240;28;20614;-58
2020/12/13 08:22:04;;;;;;;1.37;1.27;;;;;;;18.73;46.97;100389.19;5052278;28;20184;-67
2020/12/13 08:24:30;;;;;;;1.30;1.20;;;;;;;18.77;46.82;100395.94;5051286;28;20270;-67
2020/12/13 08:27:00;;;;;;;1.00;1.00;;;;;;;18.79;46.96;100405.59;5052191;28;20188;-64
2020/12/13 08:29:34;;;;;;;1.40;1.30;;;;;;;18.81;46.89;100405.41;5051252;28;20188;-64
2020/12/13 08:32:00;;;;;;;1.20;1.20;;;;;;;18.82;47.03;100410.66;5051242;28;20177;-64
2020/12/13 08:34:29;;;;;;;1.30;1.30;;;;;;;18.82;46.87;100409.81;5052098;28;20561;-64
2020/12/13 08:36:58;;;;;;;1.20;1.20;;;;;;;18.82;46.92;100404.38;5052103;28;20188;-67
2020/12/13 08:39:29;;;;;;;1.30;1.30;;;;;;;18.80;46.89;100407.28;5051891;28;20191;-57
2020/12/13 08:41:56;;;;;;;1.20;1.20;;;;;;;18.81;46.83;100418.97;5051270;28;20212;-58
2020/12/13 08:44:30;;;;;;;1.30;1.20;;;;;;;18.76;46.59;100421.38;5051964;28;20271;-58
2020/12/13 08:46:58;;;;;;;1.10;1.10;;;;;;;18.73;46.88;100427.16;5051108;28;20238;-58
2020/12/13 08:49:25;;;;;;;1.30;1.20;;;;;;;18.69;46.67;100423.91;5050973;28;20219;-59
2020/12/13 08:51:51;;;;;;;1.47;1.37;;;;;;;18.64;46.82;100429.88;5053387;28;20195;-58
2020/12/13 08:54:17;;;;;;;1.20;1.20;;;;;;;18.58;46.85;100435.97;5054886;28;20258;-66
2020/12/13 08:56:43;;;;;;;1.40;1.30;;;;;;;18.50;47.27;100441.44;5055799;28;20271;-63
2020/12/13 08:59:09;;;;;;;1.10;1.10;;;;;;;18.49;47.33;100433.47;5055610;28;20656;-59
2020/12/13 09:01:40;;;;;;;1.20;1.20;;;;;;;18.42;47.25;100431.44;5055847;28;20185;-59
2020/12/13 09:04:28;;;;;;;1.10;1.10;;;;;;;18.41;46.88;100435.16;5055728;28;20271;-67
2020/12/13 09:06:55;;;;;;;1.10;1.10;;;;;;;18.36;47.15;100448.41;5055840;28;20263;-66
2020/12/13 09:09:22;;;;;;;1.10;1.10;;;;;;;18.32;47.30;100440.78;5055732;28;20203;-63
2020/12/13 09:11:48;;;;;;;1.40;1.30;;;;;;;18.27;47.13;100448.59;5055388;28;20191;-63
2020/12/13 09:14:25;;;;;;;1.30;1.20;;;;;;;18.27;47.04;100448.59;5055453;28;20728;-63
2020/12/13 09:16:51;;;;;;;1.13;1.13;;;;;;;18.32;47.03;100452.47;5055242;28;20187;-63
2020/12/13 09:19:17;;;;;;;1.13;1.13;;;;;;;18.32;47.23;100451.63;5055041;28;20686;-63
2020/12/13 09:21:47;;;;;;;1.10;1.10;;;;;;;18.34;46.74;100455.00;5054139;28;20192;-58
2020/12/13 09:24:13;;;;;;;1.40;1.30;;;;;;;18.34;47.12;100455.00;5055337;28;20180;-58
2020/12/13 09:26:39;;;;;;;1.40;1.30;;;;;;;18.36;47.47;100463.81;5054179;28;20279;-58
2020/12/13 09:29:06;;;;;;;0.97;0.97;;;;;;;18.36;47.19;100471.94;5054875;28;20239;-67
2020/12/13 09:31:32;;;;;;;1.10;1.10;;;;;;;18.35;47.22;100468.38;5055052;28;20195;-59
2020/12/13 09:33:58;;;;;;;1.13;1.03;;;;;;;18.37;47.18;100465.50;5054952;28;20224;-58
2020/12/13 09:36:24;;;;;;;1.10;1.10;;;;;;;18.38;47.44;100470.75;5054033;28;20188;-58
2020/12/13 09:38:51;;;;;;;1.40;1.30;;;;;;;18.37;47.65;100477.19;5054891;28;20262;-58
2020/12/13 09:41:21;;;;;;;1.20;1.20;;;;;;;18.38;47.60;100480.75;5054904;28;20220;-59
2020/12/13 09:43:47;;;;;;;1.07;1.07;;;;;;;18.37;47.23;100474.47;5054730;28;20218;-58
2020/12/13 09:46:16;;;;;;;1.50;1.40;;;;;;;18.36;47.34;100480.06;5054904;28;20192;-66
2020/12/13 09:48:42;;;;;;;1.33;1.30;;;;;;;18.36;47.59;100480.06;5053639;28;20587;-60
2020/12/13 09:51:08;;;;;;;1.30;1.20;;;;;;;18.37;47.51;100484.47;5054420;28;20334;-60
2020/12/13 09:53:34;;;;;;;1.33;1.30;;;;;;;18.35;47.39;100483.78;5054518;28;20176;-60
2020/12/13 09:56:01;;;;;;;1.50;1.40;;;;;;;18.35;47.11;100484.66;5054498;28;20208;-60
2020/12/13 09:58:27;;;;;;;1.40;1.30;;;;;;;18.34;47.42;100492.94;5054329;28;20277;-60
2020/12/13 10:00:53;;;;;;;1.20;1.20;;;;;;;18.36;46.95;100491.75;5054628;28;20188;-60
2020/12/13 10:03:19;;;;;;;1.20;1.20;;;;;;;18.40;47.21;100497.66;5053589;28;20208;-60
2020/12/13 10:06:02;;;;;;;1.70;1.30;;;;;;;18.45;47.41;100497.16;5054266;28;20245;-58
2020/12/13 10:11:13;;;;;;;1.20;1.20;;;;;;;18.59;47.12;100497.28;5054414;28;20191;-58
2020/12/13 10:13:39;;;;;;;1.33;1.23;;;;;;;18.68;47.19;100490.84;5060807;28;20263;-57
2020/12/13 10:16:09;;;;;;;1.27;1.17;;;;;;;18.77;47.09;100493.56;5076749;28;20646;-58
2020/12/13 10:18:36;;;;;;;1.40;1.30;;;;;;;18.87;46.98;100500.44;5072385;28;20302;-57
2020/12/13 10:21:02;;;;;;;1.10;1.10;;;;;;;18.96;47.12;100495.84;5064917;28;20203;-57
2020/12/13 10:23:28;;;;;;;1.30;1.20;;;;;;;19.06;46.96;100495.63;5072252;28;20203;-57
2020/12/13 10:25:54;;;;;;;1.30;1.20;;;;;;;19.15;46.92;100506.25;5073009;28;20187;-57
2020/12/13 10:28:20;;;;;;;1.30;1.20;;;;;;;19.24;47.05;100499.78;5072638;28;20239;-57
2020/12/13 10:30:52;;;;;;;1.30;1.20;;;;;;;19.35;46.86;100511.25;5069652;28;20249;-65
2020/12/13 10:33:18;;;;;;;1.10;1.10;;;;;;;19.42;46.97;100506.81;5072748;28;20615;-60
2020/12/13 10:35:45;;;;;;;1.20;1.10;;;;;;;19.52;46.87;100507.44;5072304;28;20191;-59
2020/12/13 10:38:11;;;;;;;1.20;1.10;;;;;;;19.59;46.62;100506.56;5072880;28;20207;-59
2020/12/13 10:40:38;;;;;;;1.07;1.00;;;;;;;19.67;46.67;100508.38;5072600;28;20704;-60
2020/12/13 10:43:05;;;;;;;1.13;1.10;;;;;;;19.75;46.89;100502.88;5072314;28;20207;-60
2020/12/13 10:45:31;;;;;;;0.90;0.90;;;;;;;19.82;46.62;100498.41;5072441;28;20187;-60
2020/12/13 10:47:58;;;;;;;1.03;0.93;;;;;;;19.92;46.83;100501.75;5072456;28;20728;-58
2020/12/13 10:50:24;;;;;;;1.20;1.10;;;;;;;19.99;46.42;100506.44;5071373;28;20209;-58
2020/12/13 10:52:53;;;;;;;0.97;0.97;;;;;;;20.06;46.59;100500.09;5072602;28;20196;-58
2020/12/13 10:55:22;;;;;;;1.10;1.00;;;;;;;20.12;46.63;100502.09;5072603;28;20266;-58
2020/12/13 10:57:48;;;;;;;1.23;1.13;;;;;;;20.20;46.61;100501.16;5072359;28;20287;-58
2020/12/13 11:00:14;;;;;;;0.90;0.90;;;;;;;20.25;46.50;100501.44;5072346;28;20176;-59
2020/12/13 11:02:40;;;;;;;1.17;1.10;;;;;;;20.31;46.46;100503.41;5072142;28;20610;-58
2020/12/13 11:05:06;;;;;;;1.10;1.10;;;;;;;20.38;46.46;100496.25;5071904;28;20184;-58
2020/12/13 11:07:32;;;;;;;0.90;0.90;;;;;;;20.43;46.45;100487.56;5071705;28;20203;-58
2020/12/13 11:09:58;;;;;;;0.90;0.90;;;;;;;20.49;46.40;100493.09;5072006;28;20268;-58
2020/12/13 11:12:24;;;;;;;0.83;0.83;;;;;;;20.54;46.35;100487.91;5071886;28;20266;-58
2020/12/13 11:14:51;;;;;;;1.10;1.10;;;;;;;20.60;46.49;100488.22;5071330;28;20184;-60
2020/12/13 11:17:17;;;;;;;0.90;0.90;;;;;;;20.64;46.21;100479.50;5070851;28;20237;-60
2020/12/13 11:19:43;;;;;;;0.97;0.90;;;;;;;20.69;46.12;100470.78;5072133;28;20199;-66
2020/12/13 11:22:09;;;;;;;0.90;0.90;;;;;;;20.74;46.29;100466.44;5069578;28;20337;-67
2020/12/13 11:24:35;;;;;;;1.37;1.00;;;;;;;20.80;46.16;100467.56;5071781;28;20203;-67
2020/12/13 11:27:01;;;;;;;1.00;1.00;;;;;;;20.84;46.27;100474.34;5071631;28;20405;-67
2020/12/13 11:29:27;;;;;;;1.50;0.90;;;;;;;20.89;46.05;100465.59;5071884;28;20191;-67
2020/12/13 11:31:53;;;;;;;1.10;1.00;;;;;;;20.94;46.23;100468.59;5071906;28;20766;-67
2020/12/13 11:34:20;;;;;;;1.17;0.80;;;;;;;20.99;45.97;100466.16;5062266;28;20238;-66
2020/12/13 11:36:46;;;;;;;1.13;0.77;;;;;;;21.03;46.19;100462.84;5064673;28;20183;-66